sensor_id;sensor_type;location;lat;lon;timestamp;temperature;humidity
20479;DHT22;10398;52.490;13.434;2023-09-07T00:01:32;20.40;99.90
20479;DHT22;10398;52.490;13.434;2023-09-07T00:03:58;20.30;99.90
20479;DHT22;10398;52.490;13.434;2023-09-07T00:06:24;20.40;99.90
20479;DHT22;10398;52.490;13.434;2023-09-07T00:08:50;20.40;99.90
20479;DHT22;10398;52.490;13.434;2023-09-07T00:11:16;20.40;99.90
20479;DHT22;10398;52.490;13.434;2023-09-07T00:13:41;20.40;99.90
20479;DHT22;10398;52.490;13.434;2023-09-07T00:16:07;20.30;99.90
20479;DHT22;10398;52.490;13.434;2023-09-07T00:18:34;20.30;99.90
20479;DHT22;10398;52.490;13.434;2023-09-07T00:21:00;20.30;99.90
20479;DHT22;10398;52.490;13.434;2023-09-07T00:23:26;20.30;99.90
20479;DHT22;10398;52.490;13.434;2023-09-07T00:25:52;20.30;99.90
20479;DHT22;10398;52.490;13.434;2023-09-07T00:28:17;20.30;99.90
20479;DHT22;10398;52.490;13.434;2023-09-07T00:30:43;20.30;99.90
20479;DHT22;10398;52.490;13.434;2023-09-07T00:33:09;20.30;99.90
20479;DHT22;10398;52.490;13.434;2023-09-07T00:35:35;20.20;99.90
20479;DHT22;10398;52.490;13.434;2023-09-07T00:38:01;20.10;99.90
20479;DHT22;10398;52.490;13.434;2023-09-07T00:40:26;20.00;99.90
20479;DHT22;10398;52.490;13.434;2023-09-07T00:42:53;20.00;99.90
20479;DHT22;10398;52.490;13.434;2023-09-07T00:45:19;20.10;99.90
20479;DHT22;10398;52.490;13.434;2023-09-07T00:47:44;20.10;99.90
20479;DHT22;10398;52.490;13.434;2023-09-07T00:50:10;20.10;99.90
20479;DHT22;10398;52.490;13.434;2023-09-07T00:52:42;20.00;99.90
20479;DHT22;10398;52.490;13.434;2023-09-07T00:55:08;20.00;99.90
20479;DHT22;10398;52.490;13.434;2023-09-07T00:57:35;20.00;99.90
20479;DHT22;10398;52.490;13.434;2023-09-07T01:00:05;20.00;99.90
20479;DHT22;10398;52.490;13.434;2023-09-07T01:02:32;20.00;99.90
20479;DHT22;10398;52.490;13.434;2023-09-07T01:04:57;20.10;99.90
20479;DHT22;10398;52.490;13.434;2023-09-07T01:07:35;20.10;99.90
20479;DHT22;10398;52.490;13.434;2023-09-07T01:10:03;20.00;99.90
20479;DHT22;10398;52.490;13.434;2023-09-07T01:12:29;20.00;99.90
20479;DHT22;10398;52.490;13.434;2023-09-07T01:14:55;19.90;99.90
20479;DHT22;10398;52.490;13.434;2023-09-07T01:17:22;19.90;99.90
20479;DHT22;10398;52.490;13.434;2023-09-07T01:19:49;19.90;99.90
20479;DHT22;10398;52.490;13.434;2023-09-07T01:22:19;19.90;99.90
20479;DHT22;10398;52.490;13.434;2023-09-07T01:24:45;19.90;99.90
20479;DHT22;10398;52.490;13.434;2023-09-07T01:27:12;19.90;99.90
20479;DHT22;10398;52.490;13.434;2023-09-07T01:29:39;19.70;99.90
20479;DHT22;10398;52.490;13.434;2023-09-07T01:32:05;19.60;99.90
20479;DHT22;10398;52.490;13.434;2023-09-07T01:34:32;19.40;99.90
20479;DHT22;10398;52.490;13.434;2023-09-07T01:36:57;19.30;99.90
20479;DHT22;10398;52.490;13.434;2023-09-07T01:39:23;19.30;99.90
20479;DHT22;10398;52.490;13.434;2023-09-07T01:41:49;19.30;99.90
20479;DHT22;10398;52.490;13.434;2023-09-07T01:44:14;19.30;99.90
20479;DHT22;10398;52.490;13.434;2023-09-07T01:46:40;19.30;99.90
20479;DHT22;10398;52.490;13.434;2023-09-07T01:49:06;19.40;99.90
20479;DHT22;10398;52.490;13.434;2023-09-07T01:51:31;19.30;99.90
20479;DHT22;10398;52.490;13.434;2023-09-07T01:53:57;19.20;99.90
20479;DHT22;10398;52.490;13.434;2023-09-07T01:56:23;19.30;99.90
20479;DHT22;10398;52.490;13.434;2023-09-07T01:58:48;19.20;99.90
20479;DHT22;10398;52.490;13.434;2023-09-07T02:01:21;19.30;99.90
20479;DHT22;10398;52.490;13.434;2023-09-07T02:03:47;19.40;99.90
20479;DHT22;10398;52.490;13.434;2023-09-07T02:06:13;19.40;99.90
20479;DHT22;10398;52.490;13.434;2023-09-07T02:08:39;19.40;99.90
20479;DHT22;10398;52.490;13.434;2023-09-07T02:11:06;19.40;99.90
20479;DHT22;10398;52.490;13.434;2023-09-07T02:13:32;19.40;99.90
20479;DHT22;10398;52.490;13.434;2023-09-07T02:15:57;19.40;99.90
20479;DHT22;10398;52.490;13.434;2023-09-07T02:18:23;19.30;99.90
20479;DHT22;10398;52.490;13.434;2023-09-07T02:20:48;19.40;99.90
20479;DHT22;10398;52.490;13.434;2023-09-07T02:23:14;19.40;99.90
20479;DHT22;10398;52.490;13.434;2023-09-07T02:25:40;19.40;99.90
20479;DHT22;10398;52.490;13.434;2023-09-07T02:28:06;19.40;99.90
20479;DHT22;10398;52.490;13.434;2023-09-07T02:30:32;19.40;99.90
20479;DHT22;10398;52.490;13.434;2023-09-07T02:32:57;19.40;99.90
20479;DHT22;10398;52.490;13.434;2023-09-07T02:35:23;19.30;99.90
20479;DHT22;10398;52.490;13.434;2023-09-07T02:37:49;19.20;99.90
20479;DHT22;10398;52.490;13.434;2023-09-07T02:40:14;19.10;99.90
20479;DHT22;10398;52.490;13.434;2023-09-07T02:42:41;19.10;99.90
20479;DHT22;10398;52.490;13.434;2023-09-07T02:45:10;19.10;99.90
20479;DHT22;10398;52.490;13.434;2023-09-07T02:47:36;19.00;99.90
20479;DHT22;10398;52.490;13.434;2023-09-07T02:50:02;19.00;99.90
20479;DHT22;10398;52.490;13.434;2023-09-07T02:52:28;19.00;99.90
20479;DHT22;10398;52.490;13.434;2023-09-07T02:54:53;19.10;99.90
20479;DHT22;10398;52.490;13.434;2023-09-07T02:57:19;19.10;99.90
20479;DHT22;10398;52.490;13.434;2023-09-07T02:59:44;19.10;99.90
20479;DHT22;10398;52.490;13.434;2023-09-07T03:02:10;19.00;99.90
20479;DHT22;10398;52.490;13.434;2023-09-07T03:04:35;19.00;99.90
20479;DHT22;10398;52.490;13.434;2023-09-07T03:07:01;19.00;99.90
20479;DHT22;10398;52.490;13.434;2023-09-07T03:09:27;19.00;99.90
20479;DHT22;10398;52.490;13.434;2023-09-07T03:11:53;19.00;99.90
20479;DHT22;10398;52.490;13.434;2023-09-07T03:14:18;19.00;99.90
20479;DHT22;10398;52.490;13.434;2023-09-07T03:16:44;18.90;99.90
20479;DHT22;10398;52.490;13.434;2023-09-07T03:19:09;19.00;99.90
20479;DHT22;10398;52.490;13.434;2023-09-07T03:21:35;19.00;99.90
20479;DHT22;10398;52.490;13.434;2023-09-07T03:24:01;19.00;99.90
20479;DHT22;10398;52.490;13.434;2023-09-07T03:26:26;19.00;99.90
20479;DHT22;10398;52.490;13.434;2023-09-07T03:28:52;19.00;99.90
20479;DHT22;10398;52.490;13.434;2023-09-07T03:31:18;19.00;99.90
20479;DHT22;10398;52.490;13.434;2023-09-07T03:33:43;18.90;99.90
20479;DHT22;10398;52.490;13.434;2023-09-07T03:36:09;18.90;99.90
20479;DHT22;10398;52.490;13.434;2023-09-07T03:38:36;18.80;99.90
20479;DHT22;10398;52.490;13.434;2023-09-07T03:41:01;18.80;99.90
20479;DHT22;10398;52.490;13.434;2023-09-07T03:43:27;18.70;99.90
20479;DHT22;10398;52.490;13.434;2023-09-07T03:45:53;18.70;99.90
20479;DHT22;10398;52.490;13.434;2023-09-07T03:48:18;18.60;99.90
20479;DHT22;10398;52.490;13.434;2023-09-07T03:50:45;18.60;99.90
20479;DHT22;10398;52.490;13.434;2023-09-07T03:53:10;18.60;99.90
20479;DHT22;10398;52.490;13.434;2023-09-07T03:55:43;18.60;99.90
20479;DHT22;10398;52.490;13.434;2023-09-07T03:58:10;18.60;99.90
20479;DHT22;10398;52.490;13.434;2023-09-07T04:00:39;18.60;99.90
20479;DHT22;10398;52.490;13.434;2023-09-07T04:03:05;18.60;99.90
20479;DHT22;10398;52.490;13.434;2023-09-07T04:05:31;18.60;99.90
20479;DHT22;10398;52.490;13.434;2023-09-07T04:07:57;18.60;99.90
20479;DHT22;10398;52.490;13.434;2023-09-07T04:10:22;18.60;99.90
20479;DHT22;10398;52.490;13.434;2023-09-07T04:12:48;18.50;99.90
20479;DHT22;10398;52.490;13.434;2023-09-07T04:15:14;18.60;99.90
20479;DHT22;10398;52.490;13.434;2023-09-07T04:17:39;18.50;99.90
20479;DHT22;10398;52.490;13.434;2023-09-07T04:20:07;18.50;99.90
20479;DHT22;10398;52.490;13.434;2023-09-07T04:22:33;18.50;99.90
20479;DHT22;10398;52.490;13.434;2023-09-07T04:24:59;18.50;99.90
20479;DHT22;10398;52.490;13.434;2023-09-07T04:27:25;18.50;99.90
20479;DHT22;10398;52.490;13.434;2023-09-07T04:29:51;18.50;99.90
20479;DHT22;10398;52.490;13.434;2023-09-07T04:32:17;18.50;99.90
20479;DHT22;10398;52.490;13.434;2023-09-07T04:34:42;18.50;99.90
20479;DHT22;10398;52.490;13.434;2023-09-07T04:37:08;18.50;99.90
20479;DHT22;10398;52.490;13.434;2023-09-07T04:39:33;18.50;99.90
20479;DHT22;10398;52.490;13.434;2023-09-07T04:41:59;18.50;99.90
20479;DHT22;10398;52.490;13.434;2023-09-07T04:44:26;18.50;99.90
20479;DHT22;10398;52.490;13.434;2023-09-07T04:46:55;18.50;99.90
20479;DHT22;10398;52.490;13.434;2023-09-07T04:49:20;18.50;99.90
20479;DHT22;10398;52.490;13.434;2023-09-07T04:51:46;18.40;99.90
20479;DHT22;10398;52.490;13.434;2023-09-07T04:54:12;18.50;99.90
20479;DHT22;10398;52.490;13.434;2023-09-07T04:56:38;18.50;99.90
20479;DHT22;10398;52.490;13.434;2023-09-07T04:59:04;18.60;99.90
20479;DHT22;10398;52.490;13.434;2023-09-07T05:01:29;18.70;99.90
20479;DHT22;10398;52.490;13.434;2023-09-07T05:03:56;18.70;99.90
20479;DHT22;10398;52.490;13.434;2023-09-07T05:06:21;18.80;99.90
20479;DHT22;10398;52.490;13.434;2023-09-07T05:08:48;18.70;99.90
20479;DHT22;10398;52.490;13.434;2023-09-07T05:11:14;18.70;99.90
20479;DHT22;10398;52.490;13.434;2023-09-07T05:13:39;18.70;99.90
20479;DHT22;10398;52.490;13.434;2023-09-07T05:16:05;18.80;99.90
20479;DHT22;10398;52.490;13.434;2023-09-07T05:18:31;18.90;99.90
20479;DHT22;10398;52.490;13.434;2023-09-07T05:20:56;18.90;99.90
20479;DHT22;10398;52.490;13.434;2023-09-07T05:23:22;18.90;99.90
20479;DHT22;10398;52.490;13.434;2023-09-07T05:25:53;18.90;99.90
20479;DHT22;10398;52.490;13.434;2023-09-07T05:28:19;19.00;99.90
20479;DHT22;10398;52.490;13.434;2023-09-07T05:30:45;19.00;99.90
20479;DHT22;10398;52.490;13.434;2023-09-07T05:33:13;19.10;99.90
20479;DHT22;10398;52.490;13.434;2023-09-07T05:35:39;19.30;99.90
20479;DHT22;10398;52.490;13.434;2023-09-07T05:38:05;19.30;99.90
20479;DHT22;10398;52.490;13.434;2023-09-07T05:40:38;19.30;99.90
20479;DHT22;10398;52.490;13.434;2023-09-07T05:43:04;19.40;99.90
20479;DHT22;10398;52.490;13.434;2023-09-07T05:45:33;19.50;99.90
20479;DHT22;10398;52.490;13.434;2023-09-07T05:47:59;19.50;99.90
20479;DHT22;10398;52.490;13.434;2023-09-07T05:50:24;19.50;99.90
20479;DHT22;10398;52.490;13.434;2023-09-07T05:52:50;19.60;99.90
20479;DHT22;10398;52.490;13.434;2023-09-07T05:55:16;19.60;99.90
20479;DHT22;10398;52.490;13.434;2023-09-07T05:57:42;19.60;99.90
20479;DHT22;10398;52.490;13.434;2023-09-07T06:00:08;19.70;99.90
20479;DHT22;10398;52.490;13.434;2023-09-07T06:02:34;19.70;99.90
20479;DHT22;10398;52.490;13.434;2023-09-07T06:04:59;19.80;99.90
20479;DHT22;10398;52.490;13.434;2023-09-07T06:07:25;19.80;99.90
20479;DHT22;10398;52.490;13.434;2023-09-07T06:09:51;19.80;99.90
20479;DHT22;10398;52.490;13.434;2023-09-07T06:12:17;19.80;99.90
20479;DHT22;10398;52.490;13.434;2023-09-07T06:14:42;19.90;99.90
20479;DHT22;10398;52.490;13.434;2023-09-07T06:17:09;19.90;99.90
20479;DHT22;10398;52.490;13.434;2023-09-07T06:19:35;20.00;99.90
20479;DHT22;10398;52.490;13.434;2023-09-07T06:22:00;20.10;99.90
20479;DHT22;10398;52.490;13.434;2023-09-07T06:24:26;20.10;99.90
20479;DHT22;10398;52.490;13.434;2023-09-07T06:26:52;20.20;99.90
20479;DHT22;10398;52.490;13.434;2023-09-07T06:29:18;20.20;99.90
20479;DHT22;10398;52.490;13.434;2023-09-07T06:31:43;20.10;99.90
20479;DHT22;10398;52.490;13.434;2023-09-07T06:34:09;20.20;99.90
20479;DHT22;10398;52.490;13.434;2023-09-07T06:36:35;20.20;99.90
20479;DHT22;10398;52.490;13.434;2023-09-07T06:39:01;20.20;99.90
20479;DHT22;10398;52.490;13.434;2023-09-07T06:41:27;20.30;99.90
20479;DHT22;10398;52.490;13.434;2023-09-07T06:43:53;20.40;99.90
20479;DHT22;10398;52.490;13.434;2023-09-07T06:46:19;20.40;99.90
20479;DHT22;10398;52.490;13.434;2023-09-07T06:48:44;20.50;99.90
20479;DHT22;10398;52.490;13.434;2023-09-07T06:51:10;20.50;99.90
20479;DHT22;10398;52.490;13.434;2023-09-07T06:53:36;20.60;99.90
20479;DHT22;10398;52.490;13.434;2023-09-07T06:56:03;20.70;99.90
20479;DHT22;10398;52.490;13.434;2023-09-07T06:58:29;20.70;99.90
20479;DHT22;10398;52.490;13.434;2023-09-07T07:00:58;20.80;99.90
20479;DHT22;10398;52.490;13.434;2023-09-07T07:03:28;20.80;99.90
20479;DHT22;10398;52.490;13.434;2023-09-07T07:05:54;21.00;99.90
20479;DHT22;10398;52.490;13.434;2023-09-07T07:08:20;21.10;99.90
20479;DHT22;10398;52.490;13.434;2023-09-07T07:10:46;21.10;99.90
20479;DHT22;10398;52.490;13.434;2023-09-07T07:13:11;21.20;99.90
20479;DHT22;10398;52.490;13.434;2023-09-07T07:15:37;21.40;99.90
20479;DHT22;10398;52.490;13.434;2023-09-07T07:18:03;21.50;99.90
20479;DHT22;10398;52.490;13.434;2023-09-07T07:20:41;21.60;99.90
20479;DHT22;10398;52.490;13.434;2023-09-07T07:23:07;21.60;99.90
20479;DHT22;10398;52.490;13.434;2023-09-07T07:25:34;21.70;99.90
20479;DHT22;10398;52.490;13.434;2023-09-07T07:28:00;21.80;99.90
20479;DHT22;10398;52.490;13.434;2023-09-07T07:30:29;21.80;99.90
20479;DHT22;10398;52.490;13.434;2023-09-07T07:32:56;21.80;99.90
20479;DHT22;10398;52.490;13.434;2023-09-07T07:35:22;21.90;99.90
20479;DHT22;10398;52.490;13.434;2023-09-07T07:37:51;22.00;99.90
20479;DHT22;10398;52.490;13.434;2023-09-07T07:40:18;22.00;99.90
20479;DHT22;10398;52.490;13.434;2023-09-07T07:42:46;22.10;99.90
20479;DHT22;10398;52.490;13.434;2023-09-07T07:45:15;22.20;99.90
20479;DHT22;10398;52.490;13.434;2023-09-07T07:47:45;22.20;99.90
20479;DHT22;10398;52.490;13.434;2023-09-07T07:50:11;22.30;99.90
20479;DHT22;10398;52.490;13.434;2023-09-07T07:52:37;22.40;99.90
20479;DHT22;10398;52.490;13.434;2023-09-07T07:55:02;22.40;99.90
20479;DHT22;10398;52.490;13.434;2023-09-07T07:57:28;22.50;99.90
20479;DHT22;10398;52.490;13.434;2023-09-07T07:59:56;22.60;99.90
20479;DHT22;10398;52.490;13.434;2023-09-07T08:02:22;22.70;99.90
20479;DHT22;10398;52.490;13.434;2023-09-07T08:04:47;22.70;99.90
20479;DHT22;10398;52.490;13.434;2023-09-07T08:07:13;22.70;99.90
20479;DHT22;10398;52.490;13.434;2023-09-07T08:09:39;22.80;99.90
20479;DHT22;10398;52.490;13.434;2023-09-07T08:12:07;22.80;99.90
20479;DHT22;10398;52.490;13.434;2023-09-07T08:14:33;22.90;99.90
20479;DHT22;10398;52.490;13.434;2023-09-07T08:16:59;22.90;99.90
20479;DHT22;10398;52.490;13.434;2023-09-07T08:19:25;23.00;99.90
20479;DHT22;10398;52.490;13.434;2023-09-07T08:21:53;23.10;99.90
20479;DHT22;10398;52.490;13.434;2023-09-07T08:24:19;23.20;99.90
20479;DHT22;10398;52.490;13.434;2023-09-07T08:26:44;23.30;99.90
20479;DHT22;10398;52.490;13.434;2023-09-07T08:29:10;23.50;99.90
20479;DHT22;10398;52.490;13.434;2023-09-07T08:31:37;23.50;99.90
20479;DHT22;10398;52.490;13.434;2023-09-07T08:34:05;23.60;99.90
20479;DHT22;10398;52.490;13.434;2023-09-07T08:36:32;23.70;99.90
20479;DHT22;10398;52.490;13.434;2023-09-07T08:39:03;23.80;99.90
20479;DHT22;10398;52.490;13.434;2023-09-07T08:41:32;23.90;99.90
20479;DHT22;10398;52.490;13.434;2023-09-07T08:44:04;24.10;99.90
20479;DHT22;10398;52.490;13.434;2023-09-07T08:46:31;24.20;99.90
20479;DHT22;10398;52.490;13.434;2023-09-07T08:48:57;24.30;99.90
20479;DHT22;10398;52.490;13.434;2023-09-07T08:51:25;24.40;99.90
20479;DHT22;10398;52.490;13.434;2023-09-07T08:53:53;24.50;99.90
20479;DHT22;10398;52.490;13.434;2023-09-07T08:56:20;24.60;99.90
20479;DHT22;10398;52.490;13.434;2023-09-07T08:58:46;24.80;99.90
20479;DHT22;10398;52.490;13.434;2023-09-07T09:01:15;24.90;99.90
20479;DHT22;10398;52.490;13.434;2023-09-07T09:03:42;25.00;99.90
20479;DHT22;10398;52.490;13.434;2023-09-07T09:06:08;25.00;99.90
20479;DHT22;10398;52.490;13.434;2023-09-07T09:08:44;25.20;99.90
20479;DHT22;10398;52.490;13.434;2023-09-07T09:11:11;25.20;99.90
20479;DHT22;10398;52.490;13.434;2023-09-07T09:13:37;25.20;99.90
20479;DHT22;10398;52.490;13.434;2023-09-07T09:16:02;25.30;99.90
20479;DHT22;10398;52.490;13.434;2023-09-07T09:18:29;25.50;99.90
20479;DHT22;10398;52.490;13.434;2023-09-07T09:20:55;25.60;99.90
20479;DHT22;10398;52.490;13.434;2023-09-07T09:23:21;25.70;99.90
20479;DHT22;10398;52.490;13.434;2023-09-07T09:25:50;25.70;99.90
20479;DHT22;10398;52.490;13.434;2023-09-07T09:28:16;25.80;99.90
20479;DHT22;10398;52.490;13.434;2023-09-07T09:30:42;25.90;99.90
20479;DHT22;10398;52.490;13.434;2023-09-07T09:33:10;26.00;99.90
20479;DHT22;10398;52.490;13.434;2023-09-07T09:35:37;26.00;99.90
20479;DHT22;10398;52.490;13.434;2023-09-07T09:38:03;26.10;99.90
20479;DHT22;10398;52.490;13.434;2023-09-07T09:40:31;26.10;99.90
20479;DHT22;10398;52.490;13.434;2023-09-07T09:42:57;26.20;99.90
20479;DHT22;10398;52.490;13.434;2023-09-07T09:45:26;26.20;99.90
20479;DHT22;10398;52.490;13.434;2023-09-07T09:47:54;26.30;99.90
20479;DHT22;10398;52.490;13.434;2023-09-07T09:50:25;26.40;99.90
20479;DHT22;10398;52.490;13.434;2023-09-07T09:52:52;26.40;99.90
20479;DHT22;10398;52.490;13.434;2023-09-07T09:55:18;26.50;99.90
20479;DHT22;10398;52.490;13.434;2023-09-07T09:57:44;26.70;99.90
20479;DHT22;10398;52.490;13.434;2023-09-07T10:00:11;26.80;99.90
20479;DHT22;10398;52.490;13.434;2023-09-07T10:03:23;27.00;99.90
20479;DHT22;10398;52.490;13.434;2023-09-07T10:05:52;27.20;99.90
20479;DHT22;10398;52.490;13.434;2023-09-07T10:08:19;27.30;99.90
20479;DHT22;10398;52.490;13.434;2023-09-07T10:10:51;27.30;99.90
20479;DHT22;10398;52.490;13.434;2023-09-07T10:13:32;27.30;99.90
20479;DHT22;10398;52.490;13.434;2023-09-07T10:16:06;27.40;99.90
20479;DHT22;10398;52.490;13.434;2023-09-07T10:18:36;27.40;99.90
20479;DHT22;10398;52.490;13.434;2023-09-07T10:21:03;27.50;99.90
20479;DHT22;10398;52.490;13.434;2023-09-07T10:26:03;27.70;99.90
20479;DHT22;10398;52.490;13.434;2023-09-07T10:28:32;27.70;99.90
20479;DHT22;10398;52.490;13.434;2023-09-07T10:33:24;27.90;99.90
20479;DHT22;10398;52.490;13.434;2023-09-07T10:35:50;28.00;99.90
20479;DHT22;10398;52.490;13.434;2023-09-07T10:38:16;28.10;99.90
20479;DHT22;10398;52.490;13.434;2023-09-07T10:40:44;28.10;99.90
20479;DHT22;10398;52.490;13.434;2023-09-07T10:43:10;28.10;99.90
20479;DHT22;10398;52.490;13.434;2023-09-07T10:45:36;28.10;99.90
20479;DHT22;10398;52.490;13.434;2023-09-07T10:48:02;28.20;99.90
20479;DHT22;10398;52.490;13.434;2023-09-07T10:50:45;28.30;99.90
20479;DHT22;10398;52.490;13.434;2023-09-07T10:53:15;28.40;99.90
20479;DHT22;10398;52.490;13.434;2023-09-07T10:55:49;28.50;99.90
20479;DHT22;10398;52.490;13.434;2023-09-07T10:58:26;28.50;99.90
20479;DHT22;10398;52.490;13.434;2023-09-07T11:00:54;28.60;99.90
20479;DHT22;10398;52.490;13.434;2023-09-07T11:03:19;28.70;99.90
20479;DHT22;10398;52.490;13.434;2023-09-07T11:05:45;28.70;99.90
20479;DHT22;10398;52.490;13.434;2023-09-07T11:08:11;28.70;99.90
20479;DHT22;10398;52.490;13.434;2023-09-07T11:10:37;28.80;99.90
20479;DHT22;10398;52.490;13.434;2023-09-07T11:13:06;28.90;99.90
20479;DHT22;10398;52.490;13.434;2023-09-07T11:15:33;28.90;99.90
20479;DHT22;10398;52.490;13.434;2023-09-07T11:18:08;28.90;99.90
20479;DHT22;10398;52.490;13.434;2023-09-07T11:20:35;28.90;99.90
20479;DHT22;10398;52.490;13.434;2023-09-07T11:23:02;28.90;99.90
20479;DHT22;10398;52.490;13.434;2023-09-07T11:25:36;28.90;99.30
20479;DHT22;10398;52.490;13.434;2023-09-07T11:28:03;28.90;97.90
20479;DHT22;10398;52.490;13.434;2023-09-07T11:30:29;28.90;97.70
20479;DHT22;10398;52.490;13.434;2023-09-07T11:33:07;28.70;97.50
20479;DHT22;10398;52.490;13.434;2023-09-07T11:35:34;28.70;97.10
20479;DHT22;10398;52.490;13.434;2023-09-07T11:38:03;28.80;96.30
20479;DHT22;10398;52.490;13.434;2023-09-07T11:40:30;28.80;96.60
20479;DHT22;10398;52.490;13.434;2023-09-07T11:42:56;28.70;96.70
20479;DHT22;10398;52.490;13.434;2023-09-07T11:45:22;28.70;96.10
20479;DHT22;10398;52.490;13.434;2023-09-07T11:47:48;28.70;97.50
20479;DHT22;10398;52.490;13.434;2023-09-07T11:50:16;28.80;97.20
20479;DHT22;10398;52.490;13.434;2023-09-07T11:52:42;28.80;98.00
20479;DHT22;10398;52.490;13.434;2023-09-07T11:55:08;28.80;96.50
20479;DHT22;10398;52.490;13.434;2023-09-07T11:57:38;28.80;98.20
20479;DHT22;10398;52.490;13.434;2023-09-07T12:00:04;28.70;96.10
20479;DHT22;10398;52.490;13.434;2023-09-07T12:02:31;28.80;98.80
20479;DHT22;10398;52.490;13.434;2023-09-07T12:04:56;28.80;95.60
20479;DHT22;10398;52.490;13.434;2023-09-07T12:07:22;28.80;95.80
20479;DHT22;10398;52.490;13.434;2023-09-07T12:09:48;28.90;95.80
20479;DHT22;10398;52.490;13.434;2023-09-07T12:12:14;28.90;96.70
20479;DHT22;10398;52.490;13.434;2023-09-07T12:14:39;29.00;95.70
20479;DHT22;10398;52.490;13.434;2023-09-07T12:17:05;29.00;95.20
20479;DHT22;10398;52.490;13.434;2023-09-07T12:19:30;29.00;95.00
20479;DHT22;10398;52.490;13.434;2023-09-07T12:21:56;29.00;98.00
20479;DHT22;10398;52.490;13.434;2023-09-07T12:24:22;29.20;96.70
20479;DHT22;10398;52.490;13.434;2023-09-07T12:26:47;29.30;97.00
20479;DHT22;10398;52.490;13.434;2023-09-07T12:29:13;29.20;95.20
20479;DHT22;10398;52.490;13.434;2023-09-07T12:31:39;29.30;95.40
20479;DHT22;10398;52.490;13.434;2023-09-07T12:34:04;29.30;96.20
20479;DHT22;10398;52.490;13.434;2023-09-07T12:36:30;29.40;96.00
20479;DHT22;10398;52.490;13.434;2023-09-07T12:38:56;29.40;97.10
20479;DHT22;10398;52.490;13.434;2023-09-07T12:41:27;29.30;94.90
20479;DHT22;10398;52.490;13.434;2023-09-07T12:43:54;29.40;96.70
20479;DHT22;10398;52.490;13.434;2023-09-07T12:46:19;29.50;96.30
20479;DHT22;10398;52.490;13.434;2023-09-07T12:48:45;29.40;94.40
20479;DHT22;10398;52.490;13.434;2023-09-07T12:51:11;29.40;93.70
20479;DHT22;10398;52.490;13.434;2023-09-07T12:53:36;29.50;94.00
20479;DHT22;10398;52.490;13.434;2023-09-07T12:56:02;29.40;96.50
20479;DHT22;10398;52.490;13.434;2023-09-07T12:58:28;29.40;94.20
20479;DHT22;10398;52.490;13.434;2023-09-07T13:00:54;29.40;92.90
20479;DHT22;10398;52.490;13.434;2023-09-07T13:03:20;29.40;93.20
20479;DHT22;10398;52.490;13.434;2023-09-07T13:05:45;29.50;93.00
20479;DHT22;10398;52.490;13.434;2023-09-07T13:08:11;29.50;92.50
20479;DHT22;10398;52.490;13.434;2023-09-07T13:10:37;29.60;92.60
20479;DHT22;10398;52.490;13.434;2023-09-07T13:13:04;29.50;92.10
20479;DHT22;10398;52.490;13.434;2023-09-07T13:15:29;29.60;93.10
20479;DHT22;10398;52.490;13.434;2023-09-07T13:17:55;29.70;93.20
20479;DHT22;10398;52.490;13.434;2023-09-07T13:20:21;29.80;91.00
20479;DHT22;10398;52.490;13.434;2023-09-07T13:22:47;29.80;91.40
20479;DHT22;10398;52.490;13.434;2023-09-07T13:25:13;29.80;91.50
20479;DHT22;10398;52.490;13.434;2023-09-07T13:27:38;29.90;93.00
20479;DHT22;10398;52.490;13.434;2023-09-07T13:30:05;29.90;91.20
20479;DHT22;10398;52.490;13.434;2023-09-07T13:32:33;29.90;91.40
20479;DHT22;10398;52.490;13.434;2023-09-07T13:34:59;30.00;92.90
20479;DHT22;10398;52.490;13.434;2023-09-07T13:37:25;29.90;91.10
20479;DHT22;10398;52.490;13.434;2023-09-07T13:39:50;30.00;92.20
20479;DHT22;10398;52.490;13.434;2023-09-07T13:42:16;30.00;91.60
20479;DHT22;10398;52.490;13.434;2023-09-07T13:44:42;30.10;92.20
20479;DHT22;10398;52.490;13.434;2023-09-07T13:47:10;30.10;90.90
20479;DHT22;10398;52.490;13.434;2023-09-07T13:49:36;30.10;91.60
20479;DHT22;10398;52.490;13.434;2023-09-07T13:52:02;30.30;90.90
20479;DHT22;10398;52.490;13.434;2023-09-07T13:54:28;30.20;90.40
20479;DHT22;10398;52.490;13.434;2023-09-07T13:56:54;30.20;90.10
20479;DHT22;10398;52.490;13.434;2023-09-07T13:59:20;30.20;89.60
20479;DHT22;10398;52.490;13.434;2023-09-07T14:01:45;30.10;89.00
20479;DHT22;10398;52.490;13.434;2023-09-07T14:04:11;30.20;90.00
20479;DHT22;10398;52.490;13.434;2023-09-07T14:06:37;30.30;89.80
20479;DHT22;10398;52.490;13.434;2023-09-07T14:09:02;30.30;88.60
20479;DHT22;10398;52.490;13.434;2023-09-07T14:11:28;30.20;88.10
20479;DHT22;10398;52.490;13.434;2023-09-07T14:13:54;30.10;89.60
20479;DHT22;10398;52.490;13.434;2023-09-07T14:16:20;30.00;88.30
20479;DHT22;10398;52.490;13.434;2023-09-07T14:18:46;30.00;89.30
20479;DHT22;10398;52.490;13.434;2023-09-07T14:21:16;29.90;89.10
20479;DHT22;10398;52.490;13.434;2023-09-07T14:23:43;30.00;89.80
20479;DHT22;10398;52.490;13.434;2023-09-07T14:26:09;30.20;90.30
20479;DHT22;10398;52.490;13.434;2023-09-07T14:28:35;30.20;91.10
20479;DHT22;10398;52.490;13.434;2023-09-07T14:31:02;30.10;91.90
20479;DHT22;10398;52.490;13.434;2023-09-07T14:33:32;30.10;91.00
20479;DHT22;10398;52.490;13.434;2023-09-07T14:35:58;30.00;91.00
20479;DHT22;10398;52.490;13.434;2023-09-07T14:38:24;29.90;90.90
20479;DHT22;10398;52.490;13.434;2023-09-07T14:40:52;29.90;91.10
20479;DHT22;10398;52.490;13.434;2023-09-07T14:43:21;29.90;90.50
20479;DHT22;10398;52.490;13.434;2023-09-07T14:45:47;29.90;91.00
20479;DHT22;10398;52.490;13.434;2023-09-07T14:48:12;30.00;90.20
20479;DHT22;10398;52.490;13.434;2023-09-07T14:50:38;30.00;90.40
20479;DHT22;10398;52.490;13.434;2023-09-07T14:53:04;30.10;90.90
20479;DHT22;10398;52.490;13.434;2023-09-07T14:55:29;30.20;90.50
20479;DHT22;10398;52.490;13.434;2023-09-07T14:57:55;30.20;90.60
20479;DHT22;10398;52.490;13.434;2023-09-07T15:00:21;30.30;90.90
20479;DHT22;10398;52.490;13.434;2023-09-07T15:02:48;30.40;91.10
20479;DHT22;10398;52.490;13.434;2023-09-07T15:05:13;30.40;90.60
20479;DHT22;10398;52.490;13.434;2023-09-07T15:07:39;30.40;90.50
20479;DHT22;10398;52.490;13.434;2023-09-07T15:10:05;30.30;90.50
20479;DHT22;10398;52.490;13.434;2023-09-07T15:12:31;30.30;90.20
20479;DHT22;10398;52.490;13.434;2023-09-07T15:14:56;30.30;90.20
20479;DHT22;10398;52.490;13.434;2023-09-07T15:17:22;30.30;90.30